Pedro Bay, AK (99647)

6:03 AM AKST on February 07, 2016 (GMT -0900)
Iliamna | | Change Station
CLOSE
Current Station
Airport
Location: Iliamna,
Elevation: 161 ft
Nearby Weather Stations

Elev 161 ft 59.75 °N, 154.91 °W | Updated 10 minutes ago

Clear
Clear
31 °F
Feels Like 25 °F
N
6
Wind Variable Wind from NE

Today
High -- | Low -- °F
--% Chance of Precip.
Yesterday
High -- | Low -- °F
Precip. -- in
Pressure 29.78 in
Visibility 10.0 miles
Clouds Clear
Windchill 25 °F
Dew Point 25 °F
Humidity 79%
Rainfall 0.00 in
Snow Depth Not available.
9:15 AM 5:47 PM
Waning Crescent, 1% visible
METAR PAIL 071453Z 04005KT 10SM CLR M01/M04 A2977 RMK AO2 SLP083 6//// T10061039 58016 PNO $
Pressure 29.78 in
Visibility 10.0 miles
Clouds Clear
Windchill 25 °F
Dew Point 25 °F
Humidity 79%
Rainfall 0.00 in
Snow Depth Not available.
9:15 AM 5:47 PM
Waning Crescent, 1% visible
METAR PAIL 071453Z 04005KT 10SM CLR M01/M04 A2977 RMK AO2 SLP083 6//// T10061039 58016 PNO $

10-Day Weather Forecast

Almanac

Astronomy

Feb. 07, 2016 Rise Set
Actual Time
Civil Twilight
Nautical Twilight
Astronomical Twilight
Moon
Length of Visible Light
Length of Day
Tomorrow will be .
, % of the Moon is Illuminated

Today's Extremes

State Highs State Lows

Community

WunderPhotos

Upload Photos

1,891,211 photos uploaded!

WunderBlog® & News

Nearby

Air Quality

  Air Quality AQ Index Pollutant
Not available.

Snow Depth

Station Depth Elevation

Earthquake Activity

City Distance Mag. Time & Date
Minimum magnitude displayed is 2.5.

Coastal Water Temperatures

Place Temperature

Stations

Nearby Weather Stations

Station Location Temp. Windchill Dew Point Humidity Wind Precip. Elev Updated Type
                   

Watches & Warnings

There are currently no watches in effect.